Terminal Aerodrome Forecast
Issued by NWS

Home | Current Version | Previous Version | Graphics & Text | Print | Product List | Glossary On
Versions: 1 2 3 4 5 6 7 8 9 10 11 12 13 14 15 16 17 18 19 20 21 22 23 24 25 26 27 28 29 30 31 32 33 34 35 36 37 38 39 40 41 42 43 44 45 46 47 48 49 50
000
FTUS43 KLOT 220500
TAFGYY
TAF
KGYY 220527Z 2206/2306 14003KT P6SM SCT040 BKN060 OVC100
     FM220700 VRB03KT 5SM BR VCTS SCT030 OVC045CB
      TEMPO 2207/2210 2SM +TSRA BR SCT015 OVC035CB
     FM221200 22004KT 6SM BR BKN040
     FM221900 05007KT P6SM SCT050 BKN100 PROB30 2220/2223 4SM TSRA
      OVC040CB=

USA.gov is the U.S. government's official web portal to all federal, state and local government web resources and services.